sensor_id;sensor_type;location;lat;lon;timestamp;pressure;altitude;pressure_sealevel;temperature;humidity
66742;BME280;53654;54.152;19.432;2023-12-20T00:01:23;100399.42;;;8.27;86.62
66742;BME280;53654;54.152;19.432;2023-12-20T00:03:51;100399.95;;;8.27;86.68
66742;BME280;53654;54.152;19.432;2023-12-20T00:06:19;100393.18;;;8.26;86.63
66742;BME280;53654;54.152;19.432;2023-12-20T00:08:48;100396.13;;;8.25;86.67
66742;BME280;53654;54.152;19.432;2023-12-20T00:11:16;100396.64;;;8.28;86.90
66742;BME280;53654;54.152;19.432;2023-12-20T00:13:44;100394.90;;;8.28;86.81
66742;BME280;53654;54.152;19.432;2023-12-20T00:16:16;100394.38;;;8.29;86.74
66742;BME280;53654;54.152;19.432;2023-12-20T00:18:44;100391.77;;;8.29;86.75
66742;BME280;53654;54.152;19.432;2023-12-20T00:21:13;100396.63;;;8.31;86.64
66742;BME280;53654;54.152;19.432;2023-12-20T00:23:41;100390.89;;;8.33;86.68
66742;BME280;53654;54.152;19.432;2023-12-20T00:26:09;100392.65;;;8.34;86.55
66742;BME280;53654;54.152;19.432;2023-12-20T00:28:37;100391.94;;;8.36;86.56
66742;BME280;53654;54.152;19.432;2023-12-20T00:31:05;100396.63;;;8.36;86.49
66742;BME280;53654;54.152;19.432;2023-12-20T00:33:34;100396.46;;;8.34;86.32
66742;BME280;53654;54.152;19.432;2023-12-20T00:36:03;100398.55;;;8.35;86.42
66742;BME280;53654;54.152;19.432;2023-12-20T00:38:31;100400.64;;;8.36;86.40
66742;BME280;53654;54.152;19.432;2023-12-20T00:41:00;100399.42;;;8.35;86.26
66742;BME280;53654;54.152;19.432;2023-12-20T00:43:28;100396.29;;;8.35;86.25
66742;BME280;53654;54.152;19.432;2023-12-20T00:45:57;100400.98;;;8.36;86.48
66742;BME280;53654;54.152;19.432;2023-12-20T00:48:25;100398.55;;;8.36;86.38
66742;BME280;53654;54.152;19.432;2023-12-20T00:50:58;100392.12;;;8.36;86.31
66742;BME280;53654;54.152;19.432;2023-12-20T00:53:26;100386.91;;;8.34;86.15
66742;BME280;53654;54.152;19.432;2023-12-20T00:55:54;100379.79;;;8.34;86.30
66742;BME280;53654;54.152;19.432;2023-12-20T00:58:22;100377.00;;;8.34;86.26
66742;BME280;53654;54.152;19.432;2023-12-20T01:00:50;100381.68;;;8.36;86.33
66742;BME280;53654;54.152;19.432;2023-12-20T01:03:19;100379.59;;;8.38;86.26
66742;BME280;53654;54.152;19.432;2023-12-20T01:05:48;100372.98;;;8.39;86.12
66742;BME280;53654;54.152;19.432;2023-12-20T01:08:16;100366.91;;;8.37;86.05
66742;BME280;53654;54.152;19.432;2023-12-20T01:10:44;100362.91;;;8.38;86.29
66742;BME280;53654;54.152;19.432;2023-12-20T01:13:12;100365.52;;;8.39;86.22
66742;BME280;53654;54.152;19.432;2023-12-20T01:15:40;100366.73;;;8.39;86.19
66742;BME280;53654;54.152;19.432;2023-12-20T01:18:09;100361.69;;;8.38;86.09
66742;BME280;53654;54.152;19.432;2023-12-20T01:20:37;100358.04;;;8.37;86.28
66742;BME280;53654;54.152;19.432;2023-12-20T01:23:05;100355.62;;;8.36;86.27
66742;BME280;53654;54.152;19.432;2023-12-20T01:25:34;100354.77;;;8.34;86.43
66742;BME280;53654;54.152;19.432;2023-12-20T01:28:02;100347.11;;;8.34;86.63
66742;BME280;53654;54.152;19.432;2023-12-20T01:30:31;100350.59;;;8.35;86.82
66742;BME280;53654;54.152;19.432;2023-12-20T01:33:00;100343.11;;;8.33;86.79
66742;BME280;53654;54.152;19.432;2023-12-20T01:35:29;100341.90;;;8.34;87.01
66742;BME280;53654;54.152;19.432;2023-12-20T01:37:57;100339.98;;;8.33;86.90
66742;BME280;53654;54.152;19.432;2023-12-20T01:40:25;100334.07;;;8.33;86.77
66742;BME280;53654;54.152;19.432;2023-12-20T01:43:07;100332.86;;;8.32;86.78
66742;BME280;53654;54.152;19.432;2023-12-20T01:45:36;100330.42;;;8.31;86.79
66742;BME280;53654;54.152;19.432;2023-12-20T01:48:05;100338.23;;;8.32;86.91
66742;BME280;53654;54.152;19.432;2023-12-20T01:50:36;100332.67;;;8.32;86.86
66742;BME280;53654;54.152;19.432;2023-12-20T01:53:07;100327.27;;;8.32;86.87
66742;BME280;53654;54.152;19.432;2023-12-20T01:55:39;100319.46;;;8.31;86.90
66742;BME280;53654;54.152;19.432;2023-12-20T01:58:09;100315.83;;;8.32;87.02
66742;BME280;53654;54.152;19.432;2023-12-20T02:00:38;100314.79;;;8.33;86.93
66742;BME280;53654;54.152;19.432;2023-12-20T02:03:06;100319.98;;;8.32;86.93
66742;BME280;53654;54.152;19.432;2023-12-20T02:05:36;100330.94;;;8.31;87.03
66742;BME280;53654;54.152;19.432;2023-12-20T02:08:05;100345.71;;;8.30;87.09
66742;BME280;53654;54.152;19.432;2023-12-20T02:10:34;100343.48;;;8.23;86.44
66742;BME280;53654;54.152;19.432;2023-12-20T02:13:03;100346.16;;;8.12;86.08
66742;BME280;53654;54.152;19.432;2023-12-20T02:15:32;100342.20;;;8.03;85.97
66742;BME280;53654;54.152;19.432;2023-12-20T02:18:00;100343.80;;;7.95;85.72
66742;BME280;53654;54.152;19.432;2023-12-20T02:20:28;100344.34;;;7.91;85.68
66742;BME280;53654;54.152;19.432;2023-12-20T02:22:57;100344.89;;;7.83;85.61
66742;BME280;53654;54.152;19.432;2023-12-20T02:25:25;100346.66;;;7.75;85.78
66742;BME280;53654;54.152;19.432;2023-12-20T02:27:53;100341.98;;;7.71;86.02
66742;BME280;53654;54.152;19.432;2023-12-20T02:30:21;100336.60;;;7.69;86.24
66742;BME280;53654;54.152;19.432;2023-12-20T02:32:50;100340.09;;;7.68;86.35
66742;BME280;53654;54.152;19.432;2023-12-20T02:35:19;100339.56;;;7.66;86.59
66742;BME280;53654;54.152;19.432;2023-12-20T02:37:47;100346.34;;;7.64;86.46
66742;BME280;53654;54.152;19.432;2023-12-20T02:40:15;100351.21;;;7.62;86.42
66742;BME280;53654;54.152;19.432;2023-12-20T02:42:43;100347.06;;;7.58;86.36
66742;BME280;53654;54.152;19.432;2023-12-20T02:45:12;100350.02;;;7.55;86.59
66742;BME280;53654;54.152;19.432;2023-12-20T02:47:40;100351.92;;;7.55;86.92
66742;BME280;53654;54.152;19.432;2023-12-20T02:50:08;100350.88;;;7.55;86.84
66742;BME280;53654;54.152;19.432;2023-12-20T02:52:36;100349.49;;;7.53;86.81
66742;BME280;53654;54.152;19.432;2023-12-20T02:55:05;100350.88;;;7.52;87.12
66742;BME280;53654;54.152;19.432;2023-12-20T02:57:33;100343.60;;;7.52;87.10
66742;BME280;53654;54.152;19.432;2023-12-20T03:00:04;100345.34;;;7.51;87.03
66742;BME280;53654;54.152;19.432;2023-12-20T03:02:33;100340.13;;;7.50;87.06
66742;BME280;53654;54.152;19.432;2023-12-20T03:05:01;100340.30;;;7.50;87.24
66742;BME280;53654;54.152;19.432;2023-12-20T03:07:30;100339.61;;;7.51;87.28
66742;BME280;53654;54.152;19.432;2023-12-20T03:09:58;100336.83;;;7.52;87.30
66742;BME280;53654;54.152;19.432;2023-12-20T03:12:46;100337.70;;;7.50;87.27
66742;BME280;53654;54.152;19.432;2023-12-20T03:15:14;100336.83;;;7.52;87.35
66742;BME280;53654;54.152;19.432;2023-12-20T03:17:43;100331.27;;;7.55;87.28
66742;BME280;53654;54.152;19.432;2023-12-20T03:20:12;100331.61;;;7.56;87.10
66742;BME280;53654;54.152;19.432;2023-12-20T03:22:40;100333.16;;;7.57;86.92
66742;BME280;53654;54.152;19.432;2023-12-20T03:25:09;100321.02;;;7.56;86.58
66742;BME280;53654;54.152;19.432;2023-12-20T03:27:37;100317.56;;;7.54;86.49
66742;BME280;53654;54.152;19.432;2023-12-20T03:30:07;100322.25;;;7.54;86.29
66742;BME280;53654;54.152;19.432;2023-12-20T03:32:36;100327.45;;;7.52;86.06
66742;BME280;53654;54.152;19.432;2023-12-20T03:35:04;100331.45;;;7.52;86.06
66742;BME280;53654;54.152;19.432;2023-12-20T03:37:33;100335.44;;;7.53;85.88
66742;BME280;53654;54.152;19.432;2023-12-20T03:40:01;100336.83;;;7.52;85.77
66742;BME280;53654;54.152;19.432;2023-12-20T03:42:29;100335.62;;;7.51;85.75
66742;BME280;53654;54.152;19.432;2023-12-20T03:44:57;100336.48;;;7.51;85.69
66742;BME280;53654;54.152;19.432;2023-12-20T03:47:26;100334.41;;;7.50;85.47
66742;BME280;53654;54.152;19.432;2023-12-20T03:49:54;100340.66;;;7.49;85.46
66742;BME280;53654;54.152;19.432;2023-12-20T03:52:22;100347.25;;;7.47;85.36
66742;BME280;53654;54.152;19.432;2023-12-20T03:54:51;100347.95;;;7.44;85.22
66742;BME280;53654;54.152;19.432;2023-12-20T03:57:19;100343.80;;;7.40;84.51
66742;BME280;53654;54.152;19.432;2023-12-20T03:59:47;100344.67;;;7.35;83.58
66742;BME280;53654;54.152;19.432;2023-12-20T04:02:15;100346.25;;;7.27;83.09
66742;BME280;53654;54.152;19.432;2023-12-20T04:04:43;100350.77;;;7.24;83.33
66742;BME280;53654;54.152;19.432;2023-12-20T04:07:11;100353.89;;;7.22;83.37
66742;BME280;53654;54.152;19.432;2023-12-20T04:09:40;100361.34;;;7.22;83.11
66742;BME280;53654;54.152;19.432;2023-12-20T04:12:09;100365.52;;;7.21;82.92
66742;BME280;53654;54.152;19.432;2023-12-20T04:14:37;100370.02;;;7.18;82.81
66742;BME280;53654;54.152;19.432;2023-12-20T04:17:05;100366.73;;;7.17;82.95
66742;BME280;53654;54.152;19.432;2023-12-20T04:19:33;100373.67;;;7.13;82.81
66742;BME280;53654;54.152;19.432;2023-12-20T04:22:01;100378.19;;;7.09;82.34
66742;BME280;53654;54.152;19.432;2023-12-20T04:24:30;100386.16;;;7.07;82.02
66742;BME280;53654;54.152;19.432;2023-12-20T04:26:58;100386.34;;;7.04;81.81
66742;BME280;53654;54.152;19.432;2023-12-20T04:29:26;100383.39;;;7.01;81.96
66742;BME280;53654;54.152;19.432;2023-12-20T04:31:54;100384.26;;;6.97;81.85
66742;BME280;53654;54.152;19.432;2023-12-20T04:34:22;100381.48;;;6.94;81.91
66742;BME280;53654;54.152;19.432;2023-12-20T04:36:50;100372.11;;;6.92;81.86
66742;BME280;53654;54.152;19.432;2023-12-20T04:39:18;100364.14;;;6.90;82.00
66742;BME280;53654;54.152;19.432;2023-12-20T04:41:46;100372.11;;;6.87;81.92
66742;BME280;53654;54.152;19.432;2023-12-20T04:44:15;100372.27;;;6.85;82.08
66742;BME280;53654;54.152;19.432;2023-12-20T04:46:43;100368.98;;;6.82;82.25
66742;BME280;53654;54.152;19.432;2023-12-20T04:49:12;100372.10;;;6.79;82.53
66742;BME280;53654;54.152;19.432;2023-12-20T04:51:40;100364.99;;;6.74;82.68
66742;BME280;53654;54.152;19.432;2023-12-20T04:54:08;100360.14;;;6.73;82.74
66742;BME280;53654;54.152;19.432;2023-12-20T04:56:38;100363.61;;;6.71;82.65
66742;BME280;53654;54.152;19.432;2023-12-20T04:59:06;100365.33;;;6.68;82.63
66742;BME280;53654;54.152;19.432;2023-12-20T05:01:34;100358.57;;;6.64;82.73
66742;BME280;53654;54.152;19.432;2023-12-20T05:04:02;100364.46;;;6.62;82.73
66742;BME280;53654;54.152;19.432;2023-12-20T05:06:31;100363.76;;;6.59;82.65
66742;BME280;53654;54.152;19.432;2023-12-20T05:08:59;100363.05;;;6.55;82.58
66742;BME280;53654;54.152;19.432;2023-12-20T05:11:27;100367.05;;;6.53;82.61
66742;BME280;53654;54.152;19.432;2023-12-20T05:13:56;100369.64;;;6.49;82.53
66742;BME280;53654;54.152;19.432;2023-12-20T05:16:24;100369.27;;;6.46;82.60
66742;BME280;53654;54.152;19.432;2023-12-20T05:18:52;100367.55;;;6.42;82.80
66742;BME280;53654;54.152;19.432;2023-12-20T05:21:20;100368.23;;;6.38;82.67
66742;BME280;53654;54.152;19.432;2023-12-20T05:23:48;100369.24;;;6.34;82.51
66742;BME280;53654;54.152;19.432;2023-12-20T05:26:17;100369.58;;;6.29;82.67
66742;BME280;53654;54.152;19.432;2023-12-20T05:28:45;100369.22;;;6.24;82.64
66742;BME280;53654;54.152;19.432;2023-12-20T05:31:13;100370.42;;;6.20;82.74
66742;BME280;53654;54.152;19.432;2023-12-20T05:33:41;100369.37;;;6.15;82.72
66742;BME280;53654;54.152;19.432;2023-12-20T05:36:09;100366.58;;;6.10;82.75
66742;BME280;53654;54.152;19.432;2023-12-20T05:38:39;100364.31;;;6.07;82.81
66742;BME280;53654;54.152;19.432;2023-12-20T05:41:07;100362.58;;;6.04;82.79
66742;BME280;53654;54.152;19.432;2023-12-20T05:43:35;100358.58;;;6.00;82.94
66742;BME280;53654;54.152;19.432;2023-12-20T05:46:03;100356.31;;;5.98;83.03
66742;BME280;53654;54.152;19.432;2023-12-20T05:48:31;100351.46;;;5.96;82.98
66742;BME280;53654;54.152;19.432;2023-12-20T05:51:00;100339.15;;;5.93;82.96
66742;BME280;53654;54.152;19.432;2023-12-20T05:53:28;100338.44;;;5.89;82.86
66742;BME280;53654;54.152;19.432;2023-12-20T05:55:56;100339.96;;;5.86;82.77
66742;BME280;53654;54.152;19.432;2023-12-20T05:58:24;100342.54;;;5.82;82.73
66742;BME280;53654;54.152;19.432;2023-12-20T06:00:52;100346.86;;;5.81;82.74
66742;BME280;53654;54.152;19.432;2023-12-20T06:03:20;100344.42;;;5.79;82.68
66742;BME280;53654;54.152;19.432;2023-12-20T06:05:49;100345.11;;;5.77;82.86
66742;BME280;53654;54.152;19.432;2023-12-20T06:08:19;100348.57;;;5.75;82.92
66742;BME280;53654;54.152;19.432;2023-12-20T06:10:48;100347.17;;;5.72;82.88
66742;BME280;53654;54.152;19.432;2023-12-20T06:13:16;100344.90;;;5.68;82.83
66742;BME280;53654;54.152;19.432;2023-12-20T06:15:45;100341.42;;;5.65;82.91
66742;BME280;53654;54.152;19.432;2023-12-20T06:18:13;100334.99;;;5.60;82.98
66742;BME280;53654;54.152;19.432;2023-12-20T06:20:41;100338.78;;;5.57;83.24
66742;BME280;53654;54.152;19.432;2023-12-20T06:23:09;100344.99;;;5.54;83.09
66742;BME280;53654;54.152;19.432;2023-12-20T06:25:38;100351.04;;;5.50;83.29
66742;BME280;53654;54.152;19.432;2023-12-20T06:28:07;100349.10;;;5.45;83.26
66742;BME280;53654;54.152;19.432;2023-12-20T06:30:36;100350.29;;;5.42;82.99
66742;BME280;53654;54.152;19.432;2023-12-20T06:33:04;100342.66;;;5.38;83.08
66742;BME280;53654;54.152;19.432;2023-12-20T06:35:34;100338.99;;;5.34;82.99
66742;BME280;53654;54.152;19.432;2023-12-20T06:38:04;100342.79;;;5.31;82.99
66742;BME280;53654;54.152;19.432;2023-12-20T06:40:32;100341.90;;;5.29;83.22
66742;BME280;53654;54.152;19.432;2023-12-20T06:43:00;100341.71;;;5.27;83.23
66742;BME280;53654;54.152;19.432;2023-12-20T06:45:42;100342.73;;;5.23;83.27
66742;BME280;53654;54.152;19.432;2023-12-20T06:48:11;100337.36;;;5.21;83.47
66742;BME280;53654;54.152;19.432;2023-12-20T06:50:41;100337.15;;;5.19;83.48
66742;BME280;53654;54.152;19.432;2023-12-20T06:53:09;100333.16;;;5.18;83.57
66742;BME280;53654;54.152;19.432;2023-12-20T06:55:37;100332.11;;;5.17;83.60
66742;BME280;53654;54.152;19.432;2023-12-20T06:58:05;100332.27;;;5.15;83.57
66742;BME280;53654;54.152;19.432;2023-12-20T07:00:34;100337.96;;;5.13;83.58
66742;BME280;53654;54.152;19.432;2023-12-20T07:03:03;100341.41;;;5.12;83.51
66742;BME280;53654;54.152;19.432;2023-12-20T07:05:31;100346.42;;;5.10;83.43
66742;BME280;53654;54.152;19.432;2023-12-20T07:08:00;100341.05;;;5.09;83.70
66742;BME280;53654;54.152;19.432;2023-12-20T07:10:29;100339.66;;;5.08;83.61
66742;BME280;53654;54.152;19.432;2023-12-20T07:12:57;100340.17;;;5.09;83.88
66742;BME280;53654;54.152;19.432;2023-12-20T07:15:26;100341.56;;;5.07;84.02
66742;BME280;53654;54.152;19.432;2023-12-20T07:17:55;100339.66;;;5.09;83.92
66742;BME280;53654;54.152;19.432;2023-12-20T07:20:23;100338.80;;;5.10;84.11
66742;BME280;53654;54.152;19.432;2023-12-20T07:22:51;100334.66;;;5.11;84.14
66742;BME280;53654;54.152;19.432;2023-12-20T07:25:20;100332.09;;;5.13;83.99
66742;BME280;53654;54.152;19.432;2023-12-20T07:27:48;100333.48;;;5.15;83.88
66742;BME280;53654;54.152;19.432;2023-12-20T07:30:16;100331.92;;;5.15;83.69
66742;BME280;53654;54.152;19.432;2023-12-20T07:32:45;100325.02;;;5.16;83.58
66742;BME280;53654;54.152;19.432;2023-12-20T07:35:13;100319.48;;;5.17;83.56
66742;BME280;53654;54.152;19.432;2023-12-20T07:37:42;100323.98;;;5.17;83.79
66742;BME280;53654;54.152;19.432;2023-12-20T07:40:11;100324.69;;;5.18;83.98
66742;BME280;53654;54.152;19.432;2023-12-20T07:42:40;100318.64;;;5.18;83.87
66742;BME280;53654;54.152;19.432;2023-12-20T07:45:08;100321.23;;;5.18;83.99
66742;BME280;53654;54.152;19.432;2023-12-20T07:47:38;100320.19;;;5.18;84.08
66742;BME280;53654;54.152;19.432;2023-12-20T07:50:06;100322.45;;;5.19;84.05
66742;BME280;53654;54.152;19.432;2023-12-20T07:52:35;100324.89;;;5.20;84.13
66742;BME280;53654;54.152;19.432;2023-12-20T07:55:03;100330.96;;;5.21;84.12
66742;BME280;53654;54.152;19.432;2023-12-20T07:57:32;100329.05;;;5.21;83.98
66742;BME280;53654;54.152;19.432;2023-12-20T08:00:00;100329.58;;;5.21;83.93
66742;BME280;53654;54.152;19.432;2023-12-20T08:02:31;100333.21;;;5.21;84.07
66742;BME280;53654;54.152;19.432;2023-12-20T08:04:59;100328.38;;;5.22;83.90
66742;BME280;53654;54.152;19.432;2023-12-20T08:07:27;100319.55;;;5.22;83.81
66742;BME280;53654;54.152;19.432;2023-12-20T08:09:55;100317.99;;;5.22;83.79
66742;BME280;53654;54.152;19.432;2023-12-20T08:12:24;100320.08;;;5.23;83.78
66742;BME280;53654;54.152;19.432;2023-12-20T08:14:56;100321.97;;;5.22;83.69
66742;BME280;53654;54.152;19.432;2023-12-20T08:17:24;100324.56;;;5.22;83.79
66742;BME280;53654;54.152;19.432;2023-12-20T08:19:53;100326.30;;;5.23;83.96
66742;BME280;53654;54.152;19.432;2023-12-20T08:22:21;100326.14;;;5.24;83.98
66742;BME280;53654;54.152;19.432;2023-12-20T08:24:50;100324.76;;;5.24;83.87
66742;BME280;53654;54.152;19.432;2023-12-20T08:27:18;100319.39;;;5.24;83.91
66742;BME280;53654;54.152;19.432;2023-12-20T08:29:46;100315.23;;;5.23;83.95
66742;BME280;53654;54.152;19.432;2023-12-20T08:32:14;100318.70;;;5.25;84.23
66742;BME280;53654;54.152;19.432;2023-12-20T08:34:42;100318.20;;;5.27;84.22
66742;BME280;53654;54.152;19.432;2023-12-20T08:37:10;100322.88;;;5.28;84.27
66742;BME280;53654;54.152;19.432;2023-12-20T08:39:38;100324.11;;;5.30;84.31
66742;BME280;53654;54.152;19.432;2023-12-20T08:42:11;100328.11;;;5.35;84.69
66742;BME280;53654;54.152;19.432;2023-12-20T08:44:39;100334.38;;;5.41;84.64
66742;BME280;53654;54.152;19.432;2023-12-20T08:47:07;100330.42;;;5.45;84.35
66742;BME280;53654;54.152;19.432;2023-12-20T08:49:36;100332.35;;;5.49;83.98
66742;BME280;53654;54.152;19.432;2023-12-20T08:52:05;100330.29;;;5.54;83.79
66742;BME280;53654;54.152;19.432;2023-12-20T08:54:33;100330.99;;;5.56;83.55
66742;BME280;53654;54.152;19.432;2023-12-20T08:57:01;100333.61;;;5.60;83.02
66742;BME280;53654;54.152;19.432;2023-12-20T08:59:29;100334.14;;;5.62;82.91
66742;BME280;53654;54.152;19.432;2023-12-20T09:01:58;100329.82;;;5.64;82.65
66742;BME280;53654;54.152;19.432;2023-12-20T09:04:26;100331.03;;;5.64;82.57
66742;BME280;53654;54.152;19.432;2023-12-20T09:06:54;100323.94;;;5.63;82.34
66742;BME280;53654;54.152;19.432;2023-12-20T09:09:23;100318.56;;;5.62;82.55
66742;BME280;53654;54.152;19.432;2023-12-20T09:11:51;100317.00;;;5.61;82.68
66742;BME280;53654;54.152;19.432;2023-12-20T09:14:19;100313.71;;;5.60;82.45
66742;BME280;53654;54.152;19.432;2023-12-20T09:16:47;100302.46;;;5.60;82.31
66742;BME280;53654;54.152;19.432;2023-12-20T09:19:16;100301.77;;;5.60;82.34
66742;BME280;53654;54.152;19.432;2023-12-20T09:21:45;100289.65;;;5.60;82.46
66742;BME280;53654;54.152;19.432;2023-12-20T09:24:14;100286.89;;;5.60;82.43
66742;BME280;53654;54.152;19.432;2023-12-20T09:26:43;100278.40;;;5.59;82.49
66742;BME280;53654;54.152;19.432;2023-12-20T09:29:12;100281.02;;;5.62;82.73
66742;BME280;53654;54.152;19.432;2023-12-20T09:31:43;100279.47;;;5.64;83.03
66742;BME280;53654;54.152;19.432;2023-12-20T09:34:14;100283.29;;;5.68;83.34
66742;BME280;53654;54.152;19.432;2023-12-20T09:36:43;100280.36;;;5.73;83.33
66742;BME280;53654;54.152;19.432;2023-12-20T09:39:17;100275.36;;;5.75;83.08
66742;BME280;53654;54.152;19.432;2023-12-20T09:42:00;100265.49;;;5.76;82.95
66742;BME280;53654;54.152;19.432;2023-12-20T09:44:30;100255.81;;;5.78;82.96
66742;BME280;53654;54.152;19.432;2023-12-20T09:47:02;100251.48;;;5.81;83.06
66742;BME280;53654;54.152;19.432;2023-12-20T09:49:30;100250.28;;;5.85;83.19
66742;BME280;53654;54.152;19.432;2023-12-20T09:51:59;100238.02;;;5.88;83.01
66742;BME280;53654;54.152;19.432;2023-12-20T09:54:28;100232.67;;;5.91;82.98
66742;BME280;53654;54.152;19.432;2023-12-20T09:56:57;100228.70;;;5.93;82.79
66742;BME280;53654;54.152;19.432;2023-12-20T09:59:25;100225.59;;;5.94;82.76
66742;BME280;53654;54.152;19.432;2023-12-20T10:01:55;100218.85;;;5.98;82.78
66742;BME280;53654;54.152;19.432;2023-12-20T10:04:25;100226.12;;;6.02;82.55
66742;BME280;53654;54.152;19.432;2023-12-20T10:07:02;100225.61;;;6.05;82.26
66742;BME280;53654;54.152;19.432;2023-12-20T10:09:34;100225.95;;;6.10;82.28
66742;BME280;53654;54.152;19.432;2023-12-20T10:12:03;100221.64;;;6.16;81.80
66742;BME280;53654;54.152;19.432;2023-12-20T10:14:33;100211.42;;;6.21;81.67
66742;BME280;53654;54.152;19.432;2023-12-20T10:17:03;100208.83;;;6.24;81.42
66742;BME280;53654;54.152;19.432;2023-12-20T10:19:32;100208.66;;;6.30;81.12
66742;BME280;53654;54.152;19.432;2023-12-20T10:22:01;100214.20;;;6.34;80.81
66742;BME280;53654;54.152;19.432;2023-12-20T10:24:32;100206.23;;;6.37;80.75
66742;BME280;53654;54.152;19.432;2023-12-20T10:27:07;100203.80;;;6.40;80.71
66742;BME280;53654;54.152;19.432;2023-12-20T10:29:36;100199.98;;;6.43;80.83
66742;BME280;53654;54.152;19.432;2023-12-20T10:32:38;100192.38;;;6.47;80.78
66742;BME280;53654;54.152;19.432;2023-12-20T10:35:06;100185.78;;;6.49;80.76
66742;BME280;53654;54.152;19.432;2023-12-20T10:37:36;100184.91;;;6.55;80.73
66742;BME280;53654;54.152;19.432;2023-12-20T10:40:05;100179.52;;;6.62;80.68
66742;BME280;53654;54.152;19.432;2023-12-20T10:42:35;100180.04;;;6.67;80.85
66742;BME280;53654;54.152;19.432;2023-12-20T10:45:06;100172.92;;;6.74;80.62
66742;BME280;53654;54.152;19.432;2023-12-20T10:47:35;100172.73;;;6.80;80.27
66742;BME280;53654;54.152;19.432;2023-12-20T10:50:08;100168.91;;;6.85;80.09
66742;BME280;53654;54.152;19.432;2023-12-20T10:52:37;100162.66;;;6.88;79.67
66742;BME280;53654;54.152;19.432;2023-12-20T10:55:07;100156.06;;;6.90;79.59
66742;BME280;53654;54.152;19.432;2023-12-20T10:57:36;100154.84;;;6.92;79.55
66742;BME280;53654;54.152;19.432;2023-12-20T11:00:06;100148.23;;;6.95;79.22
66742;BME280;53654;54.152;19.432;2023-12-20T11:02:40;100147.05;;;6.92;78.86
66742;BME280;53654;54.152;19.432;2023-12-20T11:07:50;100135.78;;;6.88;78.63
66742;BME280;53654;54.152;19.432;2023-12-20T11:10:31;100135.09;;;6.87;78.43
66742;BME280;53654;54.152;19.432;2023-12-20T11:13:22;100125.56;;;6.85;78.47
66742;BME280;53654;54.152;19.432;2023-12-20T11:15:51;100121.24;;;6.79;78.27
66742;BME280;53654;54.152;19.432;2023-12-20T11:18:28;100112.77;;;6.75;78.13
66742;BME280;53654;54.152;19.432;2023-12-20T11:21:01;100108.61;;;6.71;78.27
66742;BME280;53654;54.152;19.432;2023-12-20T11:23:32;100110.70;;;6.70;78.19
66742;BME280;53654;54.152;19.432;2023-12-20T11:26:03;100102.55;;;6.70;78.25
66742;BME280;53654;54.152;19.432;2023-12-20T11:28:31;100102.03;;;6.71;78.11
66742;BME280;53654;54.152;19.432;2023-12-20T11:31:01;100092.51;;;6.68;78.09
66742;BME280;53654;54.152;19.432;2023-12-20T11:33:32;100086.78;;;6.69;78.13
66742;BME280;53654;54.152;19.432;2023-12-20T11:36:03;100084.36;;;6.67;77.82
66742;BME280;53654;54.152;19.432;2023-12-20T11:38:56;100078.81;;;6.68;77.62
66742;BME280;53654;54.152;19.432;2023-12-20T11:41:26;100076.39;;;6.67;77.60
66742;BME280;53654;54.152;19.432;2023-12-20T11:43:55;100069.63;;;6.67;77.55
66742;BME280;53654;54.152;19.432;2023-12-20T11:46:25;100064.61;;;6.66;77.50
66742;BME280;53654;54.152;19.432;2023-12-20T11:48:54;100053.52;;;6.63;77.30
66742;BME280;53654;54.152;19.432;2023-12-20T11:51:23;100055.09;;;6.62;77.60
66742;BME280;53654;54.152;19.432;2023-12-20T11:53:54;100056.13;;;6.61;77.67
66742;BME280;53654;54.152;19.432;2023-12-20T11:56:22;100044.16;;;6.63;77.73
66742;BME280;53654;54.152;19.432;2023-12-20T11:58:51;100042.25;;;6.64;77.55
66742;BME280;53654;54.152;19.432;2023-12-20T12:01:19;100039.67;;;6.61;77.49
66742;BME280;53654;54.152;19.432;2023-12-20T12:04:02;100037.25;;;6.59;77.53
66742;BME280;53654;54.152;19.432;2023-12-20T12:06:30;100024.09;;;6.57;77.69
66742;BME280;53654;54.152;19.432;2023-12-20T12:08:59;100021.14;;;6.58;77.75
66742;BME280;53654;54.152;19.432;2023-12-20T12:11:27;100013.35;;;6.55;77.59
66742;BME280;53654;54.152;19.432;2023-12-20T12:13:56;100009.89;;;6.54;77.85
66742;BME280;53654;54.152;19.432;2023-12-20T12:16:24;100004.53;;;6.51;78.01
66742;BME280;53654;54.152;19.432;2023-12-20T12:18:57;99998.83;;;6.48;78.27
66742;BME280;53654;54.152;19.432;2023-12-20T12:21:25;99991.20;;;6.46;78.31
66742;BME280;53654;54.152;19.432;2023-12-20T12:24:09;99993.47;;;6.43;78.35
66742;BME280;53654;54.152;19.432;2023-12-20T12:26:38;99987.58;;;6.45;78.61
66742;BME280;53654;54.152;19.432;2023-12-20T12:29:09;99983.56;;;6.49;78.55
66742;BME280;53654;54.152;19.432;2023-12-20T12:31:37;99976.44;;;6.55;78.67
66742;BME280;53654;54.152;19.432;2023-12-20T12:34:06;99976.42;;;6.59;78.74
66742;BME280;53654;54.152;19.432;2023-12-20T12:36:34;99974.67;;;6.62;78.73
66742;BME280;53654;54.152;19.432;2023-12-20T12:39:03;99971.21;;;6.61;78.53
66742;BME280;53654;54.152;19.432;2023-12-20T12:41:34;99968.46;;;6.57;78.48
66742;BME280;53654;54.152;19.432;2023-12-20T12:44:02;99960.66;;;6.56;78.42
66742;BME280;53654;54.152;19.432;2023-12-20T12:46:41;99954.95;;;6.54;78.64
66742;BME280;53654;54.152;19.432;2023-12-20T12:49:09;99957.20;;;6.56;78.90
66742;BME280;53654;54.152;19.432;2023-12-20T12:51:38;99951.63;;;6.61;78.90
66742;BME280;53654;54.152;19.432;2023-12-20T12:54:06;99954.91;;;6.64;78.85
66742;BME280;53654;54.152;19.432;2023-12-20T12:56:34;99949.00;;;6.67;78.98
66742;BME280;53654;54.152;19.432;2023-12-20T12:59:02;99942.58;;;6.69;78.96
66742;BME280;53654;54.152;19.432;2023-12-20T13:01:30;99930.09;;;6.71;79.03
66742;BME280;53654;54.152;19.432;2023-12-20T13:03:59;99934.05;;;6.74;78.93